sensor_id;sensor_type;location;lat;lon;timestamp;P1;durP1;ratioP1;P2;durP2;ratioP2
22632;SDS011;11483;55.828;37.488;2022-12-07T00:00:53;4.47;;;2.17;;
22632;SDS011;11483;55.828;37.488;2022-12-07T00:03:20;5.37;;;2.00;;
22632;SDS011;11483;55.828;37.488;2022-12-07T00:05:46;5.20;;;2.23;;
22632;SDS011;11483;55.828;37.488;2022-12-07T00:08:11;4.60;;;2.10;;
22632;SDS011;11483;55.828;37.488;2022-12-07T00:10:37;6.63;;;2.23;;
22632;SDS011;11483;55.828;37.488;2022-12-07T00:13:03;5.63;;;2.40;;
22632;SDS011;11483;55.828;37.488;2022-12-07T00:15:29;5.77;;;2.50;;
22632;SDS011;11483;55.828;37.488;2022-12-07T00:17:55;4.33;;;2.27;;
22632;SDS011;11483;55.828;37.488;2022-12-07T00:20:20;4.17;;;2.00;;
22632;SDS011;11483;55.828;37.488;2022-12-07T00:22:46;8.13;;;2.13;;
22632;SDS011;11483;55.828;37.488;2022-12-07T00:25:12;6.20;;;2.47;;
22632;SDS011;11483;55.828;37.488;2022-12-07T00:27:38;6.23;;;2.10;;
22632;SDS011;11483;55.828;37.488;2022-12-07T00:30:04;3.57;;;1.83;;
22632;SDS011;11483;55.828;37.488;2022-12-07T00:32:30;4.87;;;2.00;;
22632;SDS011;11483;55.828;37.488;2022-12-07T00:34:56;6.93;;;2.43;;
22632;SDS011;11483;55.828;37.488;2022-12-07T00:37:22;4.33;;;2.13;;
22632;SDS011;11483;55.828;37.488;2022-12-07T00:39:48;4.53;;;2.30;;
22632;SDS011;11483;55.828;37.488;2022-12-07T00:42:14;4.97;;;1.83;;
22632;SDS011;11483;55.828;37.488;2022-12-07T00:44:39;5.03;;;2.37;;
22632;SDS011;11483;55.828;37.488;2022-12-07T00:47:05;6.47;;;2.57;;
22632;SDS011;11483;55.828;37.488;2022-12-07T00:49:31;6.63;;;2.53;;
22632;SDS011;11483;55.828;37.488;2022-12-07T00:51:57;8.30;;;2.30;;
22632;SDS011;11483;55.828;37.488;2022-12-07T00:54:23;7.03;;;2.37;;
22632;SDS011;11483;55.828;37.488;2022-12-07T00:56:48;7.33;;;2.53;;
22632;SDS011;11483;55.828;37.488;2022-12-07T00:59:14;6.37;;;2.13;;
22632;SDS011;11483;55.828;37.488;2022-12-07T01:01:40;3.63;;;1.90;;
22632;SDS011;11483;55.828;37.488;2022-12-07T01:04:06;5.30;;;2.10;;
22632;SDS011;11483;55.828;37.488;2022-12-07T01:06:32;8.03;;;2.10;;
22632;SDS011;11483;55.828;37.488;2022-12-07T01:08:58;5.97;;;2.27;;
22632;SDS011;11483;55.828;37.488;2022-12-07T01:11:25;8.20;;;2.20;;
22632;SDS011;11483;55.828;37.488;2022-12-07T01:13:54;4.37;;;2.10;;
22632;SDS011;11483;55.828;37.488;2022-12-07T01:16:21;7.80;;;2.93;;
22632;SDS011;11483;55.828;37.488;2022-12-07T01:18:49;5.47;;;2.13;;
22632;SDS011;11483;55.828;37.488;2022-12-07T01:21:17;4.10;;;1.90;;
22632;SDS011;11483;55.828;37.488;2022-12-07T01:23:46;6.43;;;2.17;;
22632;SDS011;11483;55.828;37.488;2022-12-07T01:26:13;6.00;;;2.30;;
22632;SDS011;11483;55.828;37.488;2022-12-07T01:28:41;4.57;;;2.23;;
22632;SDS011;11483;55.828;37.488;2022-12-07T01:31:08;4.47;;;1.90;;
22632;SDS011;11483;55.828;37.488;2022-12-07T01:33:36;8.20;;;2.07;;
22632;SDS011;11483;55.828;37.488;2022-12-07T01:36:07;5.30;;;2.10;;
22632;SDS011;11483;55.828;37.488;2022-12-07T01:38:46;4.53;;;2.30;;
22632;SDS011;11483;55.828;37.488;2022-12-07T01:41:15;5.43;;;2.27;;
22632;SDS011;11483;55.828;37.488;2022-12-07T01:44:07;8.33;;;2.10;;
22632;SDS011;11483;55.828;37.488;2022-12-07T01:46:59;3.23;;;1.90;;
22632;SDS011;11483;55.828;37.488;2022-12-07T01:50:00;4.23;;;1.90;;
22632;SDS011;11483;55.828;37.488;2022-12-07T01:54:51;4.43;;;2.00;;
22632;SDS011;11483;55.828;37.488;2022-12-07T01:57:23;2.73;;;1.53;;
22632;SDS011;11483;55.828;37.488;2022-12-07T01:59:49;9.30;;;2.73;;
22632;SDS011;11483;55.828;37.488;2022-12-07T02:02:22;6.00;;;2.10;;
22632;SDS011;11483;55.828;37.488;2022-12-07T02:04:52;3.83;;;2.07;;
22632;SDS011;11483;55.828;37.488;2022-12-07T02:07:19;5.90;;;2.50;;
22632;SDS011;11483;55.828;37.488;2022-12-07T02:09:47;5.87;;;2.40;;
22632;SDS011;11483;55.828;37.488;2022-12-07T02:12:13;4.17;;;2.20;;
22632;SDS011;11483;55.828;37.488;2022-12-07T02:14:39;4.97;;;2.23;;
22632;SDS011;11483;55.828;37.488;2022-12-07T02:25:52;6.40;;;2.53;;
22632;SDS011;11483;55.828;37.488;2022-12-07T02:28:29;6.20;;;2.20;;
22632;SDS011;11483;55.828;37.488;2022-12-07T02:31:14;6.57;;;1.87;;
22632;SDS011;11483;55.828;37.488;2022-12-07T02:33:49;8.20;;;2.50;;
22632;SDS011;11483;55.828;37.488;2022-12-07T02:36:43;8.50;;;2.00;;
22632;SDS011;11483;55.828;37.488;2022-12-07T02:39:22;7.53;;;2.03;;
22632;SDS011;11483;55.828;37.488;2022-12-07T02:42:01;6.07;;;1.93;;
22632;SDS011;11483;55.828;37.488;2022-12-07T02:44:32;7.40;;;2.67;;
22632;SDS011;11483;55.828;37.488;2022-12-07T02:47:01;5.30;;;2.27;;
22632;SDS011;11483;55.828;37.488;2022-12-07T02:49:31;9.17;;;2.60;;
22632;SDS011;11483;55.828;37.488;2022-12-07T02:51:57;7.10;;;1.90;;
22632;SDS011;11483;55.828;37.488;2022-12-07T02:54:23;6.43;;;1.97;;
22632;SDS011;11483;55.828;37.488;2022-12-07T02:56:50;5.57;;;2.27;;
22632;SDS011;11483;55.828;37.488;2022-12-07T03:08:13;3.73;;;1.60;;
22632;SDS011;11483;55.828;37.488;2022-12-07T03:11:02;4.13;;;1.87;;
22632;SDS011;11483;55.828;37.488;2022-12-07T03:13:37;6.27;;;2.13;;
22632;SDS011;11483;55.828;37.488;2022-12-07T03:16:07;2.47;;;1.47;;
22632;SDS011;11483;55.828;37.488;2022-12-07T03:18:52;4.77;;;1.63;;
22632;SDS011;11483;55.828;37.488;2022-12-07T03:21:25;15.33;;;1.87;;
22632;SDS011;11483;55.828;37.488;2022-12-07T03:23:56;3.10;;;1.60;;
22632;SDS011;11483;55.828;37.488;2022-12-07T03:26:34;6.93;;;2.50;;
22632;SDS011;11483;55.828;37.488;2022-12-07T03:29:37;3.23;;;1.50;;
22632;SDS011;11483;55.828;37.488;2022-12-07T03:32:19;6.50;;;1.97;;
22632;SDS011;11483;55.828;37.488;2022-12-07T03:35:01;5.07;;;2.10;;
22632;SDS011;11483;55.828;37.488;2022-12-07T03:37:43;6.77;;;2.10;;
22632;SDS011;11483;55.828;37.488;2022-12-07T03:40:21;3.37;;;1.70;;
22632;SDS011;11483;55.828;37.488;2022-12-07T03:42:58;6.43;;;2.30;;
22632;SDS011;11483;55.828;37.488;2022-12-07T03:45:32;2.83;;;1.47;;
22632;SDS011;11483;55.828;37.488;2022-12-07T03:48:08;3.47;;;1.80;;
22632;SDS011;11483;55.828;37.488;2022-12-07T03:53:48;3.10;;;1.60;;
22632;SDS011;11483;55.828;37.488;2022-12-07T03:56:24;2.83;;;1.20;;
22632;SDS011;11483;55.828;37.488;2022-12-07T03:58:52;6.03;;;1.80;;
22632;SDS011;11483;55.828;37.488;2022-12-07T04:01:19;7.10;;;1.83;;
22632;SDS011;11483;55.828;37.488;2022-12-07T04:03:45;2.90;;;1.37;;
22632;SDS011;11483;55.828;37.488;2022-12-07T04:06:10;7.63;;;2.57;;
22632;SDS011;11483;55.828;37.488;2022-12-07T04:08:36;8.90;;;2.63;;
22632;SDS011;11483;55.828;37.488;2022-12-07T04:11:02;4.70;;;1.80;;
22632;SDS011;11483;55.828;37.488;2022-12-07T04:13:28;4.13;;;1.90;;
22632;SDS011;11483;55.828;37.488;2022-12-07T04:15:54;7.13;;;1.87;;
22632;SDS011;11483;55.828;37.488;2022-12-07T04:18:19;6.37;;;2.13;;
22632;SDS011;11483;55.828;37.488;2022-12-07T04:20:46;7.17;;;2.67;;
22632;SDS011;11483;55.828;37.488;2022-12-07T04:23:12;2.33;;;1.53;;
22632;SDS011;11483;55.828;37.488;2022-12-07T04:25:38;20.13;;;2.70;;
22632;SDS011;11483;55.828;37.488;2022-12-07T04:28:04;9.30;;;2.20;;
22632;SDS011;11483;55.828;37.488;2022-12-07T04:30:30;10.93;;;2.40;;
22632;SDS011;11483;55.828;37.488;2022-12-07T04:32:56;5.60;;;2.27;;
22632;SDS011;11483;55.828;37.488;2022-12-07T04:35:21;6.67;;;2.10;;
22632;SDS011;11483;55.828;37.488;2022-12-07T04:37:47;6.07;;;2.00;;
22632;SDS011;11483;55.828;37.488;2022-12-07T04:40:13;3.97;;;1.97;;
22632;SDS011;11483;55.828;37.488;2022-12-07T04:42:39;2.40;;;1.20;;
22632;SDS011;11483;55.828;37.488;2022-12-07T04:45:05;4.70;;;2.23;;
22632;SDS011;11483;55.828;37.488;2022-12-07T04:47:31;9.73;;;2.17;;
22632;SDS011;11483;55.828;37.488;2022-12-07T04:49:57;3.97;;;1.90;;
22632;SDS011;11483;55.828;37.488;2022-12-07T04:52:23;4.73;;;1.80;;
22632;SDS011;11483;55.828;37.488;2022-12-07T04:54:49;6.77;;;1.97;;
22632;SDS011;11483;55.828;37.488;2022-12-07T04:57:15;7.20;;;2.40;;
22632;SDS011;11483;55.828;37.488;2022-12-07T04:59:41;5.23;;;1.63;;
22632;SDS011;11483;55.828;37.488;2022-12-07T05:02:07;8.80;;;1.80;;
22632;SDS011;11483;55.828;37.488;2022-12-07T05:04:32;5.43;;;2.10;;
22632;SDS011;11483;55.828;37.488;2022-12-07T05:06:58;3.13;;;1.07;;
22632;SDS011;11483;55.828;37.488;2022-12-07T05:09:24;3.27;;;1.63;;
22632;SDS011;11483;55.828;37.488;2022-12-07T05:11:50;3.00;;;1.50;;
22632;SDS011;11483;55.828;37.488;2022-12-07T05:14:17;2.90;;;1.87;;
22632;SDS011;11483;55.828;37.488;2022-12-07T05:16:45;5.67;;;1.77;;
22632;SDS011;11483;55.828;37.488;2022-12-07T05:19:14;7.40;;;3.47;;
22632;SDS011;11483;55.828;37.488;2022-12-07T05:21:40;7.73;;;1.40;;
22632;SDS011;11483;55.828;37.488;2022-12-07T05:24:06;3.80;;;1.83;;
22632;SDS011;11483;55.828;37.488;2022-12-07T05:26:33;4.53;;;2.00;;
22632;SDS011;11483;55.828;37.488;2022-12-07T05:28:59;12.30;;;1.83;;
22632;SDS011;11483;55.828;37.488;2022-12-07T05:31:25;7.73;;;2.37;;
22632;SDS011;11483;55.828;37.488;2022-12-07T05:33:52;3.97;;;1.80;;
22632;SDS011;11483;55.828;37.488;2022-12-07T05:36:18;4.90;;;2.07;;
22632;SDS011;11483;55.828;37.488;2022-12-07T05:38:44;5.37;;;2.20;;
22632;SDS011;11483;55.828;37.488;2022-12-07T05:41:13;7.13;;;1.57;;
22632;SDS011;11483;55.828;37.488;2022-12-07T05:43:59;5.80;;;2.47;;
22632;SDS011;11483;55.828;37.488;2022-12-07T05:46:25;6.13;;;2.20;;
22632;SDS011;11483;55.828;37.488;2022-12-07T05:48:51;5.00;;;2.40;;
22632;SDS011;11483;55.828;37.488;2022-12-07T05:51:17;8.27;;;2.80;;
22632;SDS011;11483;55.828;37.488;2022-12-07T05:53:43;4.10;;;1.80;;
22632;SDS011;11483;55.828;37.488;2022-12-07T05:56:10;14.30;;;2.57;;
22632;SDS011;11483;55.828;37.488;2022-12-07T05:58:36;4.60;;;2.13;;
22632;SDS011;11483;55.828;37.488;2022-12-07T06:01:20;6.07;;;2.83;;
22632;SDS011;11483;55.828;37.488;2022-12-07T06:03:46;6.67;;;1.60;;
22632;SDS011;11483;55.828;37.488;2022-12-07T06:06:12;7.90;;;2.63;;
22632;SDS011;11483;55.828;37.488;2022-12-07T06:08:37;6.23;;;2.77;;
22632;SDS011;11483;55.828;37.488;2022-12-07T06:11:03;5.77;;;2.63;;
22632;SDS011;11483;55.828;37.488;2022-12-07T06:13:48;6.27;;;2.67;;
22632;SDS011;11483;55.828;37.488;2022-12-07T06:16:14;7.47;;;1.97;;
22632;SDS011;11483;55.828;37.488;2022-12-07T06:18:39;7.47;;;2.20;;
22632;SDS011;11483;55.828;37.488;2022-12-07T06:21:05;7.70;;;2.90;;
22632;SDS011;11483;55.828;37.488;2022-12-07T06:23:31;6.53;;;2.60;;
22632;SDS011;11483;55.828;37.488;2022-12-07T06:25:57;16.53;;;2.40;;
22632;SDS011;11483;55.828;37.488;2022-12-07T06:28:23;10.27;;;3.50;;
22632;SDS011;11483;55.828;37.488;2022-12-07T06:30:58;6.97;;;2.30;;
22632;SDS011;11483;55.828;37.488;2022-12-07T06:33:25;5.77;;;2.17;;
22632;SDS011;11483;55.828;37.488;2022-12-07T06:35:51;5.63;;;2.37;;
22632;SDS011;11483;55.828;37.488;2022-12-07T06:38:17;5.27;;;2.30;;
22632;SDS011;11483;55.828;37.488;2022-12-07T06:40:43;9.33;;;2.80;;
22632;SDS011;11483;55.828;37.488;2022-12-07T06:43:09;12.67;;;2.97;;
22632;SDS011;11483;55.828;37.488;2022-12-07T06:45:35;5.27;;;2.60;;
22632;SDS011;11483;55.828;37.488;2022-12-07T06:48:01;4.90;;;2.60;;
22632;SDS011;11483;55.828;37.488;2022-12-07T06:50:27;8.20;;;2.80;;
22632;SDS011;11483;55.828;37.488;2022-12-07T06:52:53;9.53;;;3.13;;
22632;SDS011;11483;55.828;37.488;2022-12-07T06:55:19;16.20;;;3.50;;
22632;SDS011;11483;55.828;37.488;2022-12-07T06:57:44;6.77;;;2.60;;
22632;SDS011;11483;55.828;37.488;2022-12-07T07:00:10;14.53;;;3.07;;
22632;SDS011;11483;55.828;37.488;2022-12-07T07:02:37;9.13;;;3.37;;
22632;SDS011;11483;55.828;37.488;2022-12-07T07:05:03;6.77;;;2.80;;
22632;SDS011;11483;55.828;37.488;2022-12-07T07:07:29;9.87;;;3.70;;
22632;SDS011;11483;55.828;37.488;2022-12-07T07:09:55;8.73;;;3.47;;
22632;SDS011;11483;55.828;37.488;2022-12-07T07:12:21;19.83;;;3.90;;
22632;SDS011;11483;55.828;37.488;2022-12-07T07:14:46;10.30;;;3.90;;
22632;SDS011;11483;55.828;37.488;2022-12-07T07:17:12;13.60;;;4.37;;
22632;SDS011;11483;55.828;37.488;2022-12-07T07:19:38;6.60;;;3.27;;
22632;SDS011;11483;55.828;37.488;2022-12-07T07:22:04;9.80;;;3.70;;
22632;SDS011;11483;55.828;37.488;2022-12-07T07:24:31;7.93;;;3.07;;
22632;SDS011;11483;55.828;37.488;2022-12-07T07:26:56;7.43;;;3.20;;
22632;SDS011;11483;55.828;37.488;2022-12-07T07:29:23;11.13;;;3.93;;
22632;SDS011;11483;55.828;37.488;2022-12-07T07:31:49;6.73;;;3.43;;
22632;SDS011;11483;55.828;37.488;2022-12-07T07:34:14;11.40;;;2.37;;
22632;SDS011;11483;55.828;37.488;2022-12-07T07:36:40;15.07;;;2.93;;
22632;SDS011;11483;55.828;37.488;2022-12-07T07:39:06;11.77;;;3.67;;
22632;SDS011;11483;55.828;37.488;2022-12-07T07:41:32;10.00;;;3.40;;
22632;SDS011;11483;55.828;37.488;2022-12-07T07:43:58;8.63;;;3.23;;
22632;SDS011;11483;55.828;37.488;2022-12-07T07:46:24;7.97;;;3.10;;
22632;SDS011;11483;55.828;37.488;2022-12-07T07:48:49;8.10;;;2.97;;
22632;SDS011;11483;55.828;37.488;2022-12-07T07:51:15;10.03;;;2.87;;
22632;SDS011;11483;55.828;37.488;2022-12-07T07:53:41;11.57;;;3.27;;
22632;SDS011;11483;55.828;37.488;2022-12-07T07:56:07;6.93;;;2.97;;
22632;SDS011;11483;55.828;37.488;2022-12-07T07:58:33;12.27;;;4.20;;
22632;SDS011;11483;55.828;37.488;2022-12-07T08:01:05;13.97;;;4.33;;
22632;SDS011;11483;55.828;37.488;2022-12-07T08:03:32;12.87;;;3.53;;
22632;SDS011;11483;55.828;37.488;2022-12-07T08:05:58;11.20;;;3.87;;
22632;SDS011;11483;55.828;37.488;2022-12-07T08:08:23;15.70;;;4.77;;
22632;SDS011;11483;55.828;37.488;2022-12-07T08:10:49;6.40;;;2.83;;
22632;SDS011;11483;55.828;37.488;2022-12-07T08:13:15;8.83;;;3.80;;
22632;SDS011;11483;55.828;37.488;2022-12-07T08:15:42;12.40;;;4.87;;
22632;SDS011;11483;55.828;37.488;2022-12-07T08:18:10;12.13;;;4.33;;
22632;SDS011;11483;55.828;37.488;2022-12-07T08:20:37;11.20;;;4.37;;
22632;SDS011;11483;55.828;37.488;2022-12-07T08:23:04;12.90;;;4.27;;
22632;SDS011;11483;55.828;37.488;2022-12-07T08:25:31;11.53;;;3.60;;
22632;SDS011;11483;55.828;37.488;2022-12-07T08:27:57;9.27;;;3.80;;
22632;SDS011;11483;55.828;37.488;2022-12-07T08:30:25;13.60;;;4.90;;
22632;SDS011;11483;55.828;37.488;2022-12-07T08:32:51;14.50;;;5.20;;
22632;SDS011;11483;55.828;37.488;2022-12-07T08:35:17;9.00;;;4.40;;
22632;SDS011;11483;55.828;37.488;2022-12-07T08:37:43;9.47;;;4.33;;
22632;SDS011;11483;55.828;37.488;2022-12-07T08:40:09;8.53;;;4.43;;
22632;SDS011;11483;55.828;37.488;2022-12-07T08:42:40;12.27;;;4.40;;
22632;SDS011;11483;55.828;37.488;2022-12-07T08:45:13;10.60;;;4.33;;
22632;SDS011;11483;55.828;37.488;2022-12-07T08:47:47;15.07;;;4.57;;
22632;SDS011;11483;55.828;37.488;2022-12-07T08:50:20;12.10;;;3.87;;
22632;SDS011;11483;55.828;37.488;2022-12-07T08:52:48;14.33;;;3.93;;
22632;SDS011;11483;55.828;37.488;2022-12-07T08:55:19;14.20;;;4.67;;
22632;SDS011;11483;55.828;37.488;2022-12-07T08:57:45;12.27;;;4.37;;
22632;SDS011;11483;55.828;37.488;2022-12-07T09:00:11;13.47;;;4.20;;
22632;SDS011;11483;55.828;37.488;2022-12-07T09:02:38;11.03;;;4.37;;
22632;SDS011;11483;55.828;37.488;2022-12-07T09:05:04;17.67;;;5.23;;
22632;SDS011;11483;55.828;37.488;2022-12-07T09:07:31;8.73;;;3.43;;
22632;SDS011;11483;55.828;37.488;2022-12-07T09:09:59;20.50;;;5.67;;
22632;SDS011;11483;55.828;37.488;2022-12-07T09:12:25;15.20;;;5.47;;
22632;SDS011;11483;55.828;37.488;2022-12-07T09:14:51;13.27;;;5.30;;
22632;SDS011;11483;55.828;37.488;2022-12-07T09:17:16;9.70;;;3.97;;
22632;SDS011;11483;55.828;37.488;2022-12-07T09:19:42;10.47;;;4.23;;
22632;SDS011;11483;55.828;37.488;2022-12-07T09:22:08;8.37;;;3.60;;
22632;SDS011;11483;55.828;37.488;2022-12-07T09:24:34;14.70;;;4.63;;
22632;SDS011;11483;55.828;37.488;2022-12-07T09:27:00;13.93;;;5.17;;
22632;SDS011;11483;55.828;37.488;2022-12-07T09:29:26;12.23;;;4.50;;
22632;SDS011;11483;55.828;37.488;2022-12-07T09:31:52;9.20;;;4.00;;
22632;SDS011;11483;55.828;37.488;2022-12-07T09:34:18;14.97;;;4.30;;
22632;SDS011;11483;55.828;37.488;2022-12-07T09:36:45;16.70;;;4.73;;
22632;SDS011;11483;55.828;37.488;2022-12-07T09:39:11;12.93;;;4.60;;
22632;SDS011;11483;55.828;37.488;2022-12-07T09:41:37;15.00;;;4.67;;
22632;SDS011;11483;55.828;37.488;2022-12-07T09:44:10;9.03;;;3.70;;
22632;SDS011;11483;55.828;37.488;2022-12-07T09:46:43;11.47;;;4.13;;
22632;SDS011;11483;55.828;37.488;2022-12-07T09:49:14;9.03;;;3.63;;
22632;SDS011;11483;55.828;37.488;2022-12-07T09:51:44;9.83;;;4.10;;
22632;SDS011;11483;55.828;37.488;2022-12-07T09:54:14;12.43;;;4.50;;
22632;SDS011;11483;55.828;37.488;2022-12-07T09:56:42;12.53;;;3.63;;
22632;SDS011;11483;55.828;37.488;2022-12-07T09:59:12;17.77;;;4.77;;
22632;SDS011;11483;55.828;37.488;2022-12-07T10:01:42;11.00;;;4.17;;
22632;SDS011;11483;55.828;37.488;2022-12-07T10:06:43;10.23;;;4.07;;
22632;SDS011;11483;55.828;37.488;2022-12-07T10:09:15;13.03;;;4.10;;
22632;SDS011;11483;55.828;37.488;2022-12-07T10:11:58;9.93;;;4.17;;
22632;SDS011;11483;55.828;37.488;2022-12-07T10:14:27;8.43;;;4.00;;
22632;SDS011;11483;55.828;37.488;2022-12-07T10:16:54;17.30;;;4.13;;
22632;SDS011;11483;55.828;37.488;2022-12-07T10:19:25;14.30;;;4.87;;
22632;SDS011;11483;55.828;37.488;2022-12-07T10:22:09;10.00;;;3.43;;
22632;SDS011;11483;55.828;37.488;2022-12-07T10:24:37;21.63;;;4.30;;
22632;SDS011;11483;55.828;37.488;2022-12-07T10:27:16;9.17;;;3.43;;
22632;SDS011;11483;55.828;37.488;2022-12-07T10:29:46;11.93;;;4.07;;
22632;SDS011;11483;55.828;37.488;2022-12-07T10:34:42;14.03;;;4.37;;
22632;SDS011;11483;55.828;37.488;2022-12-07T10:39:45;12.20;;;4.00;;
22632;SDS011;11483;55.828;37.488;2022-12-07T10:44:49;28.03;;;4.43;;
22632;SDS011;11483;55.828;37.488;2022-12-07T10:47:36;10.33;;;4.27;;
22632;SDS011;11483;55.828;37.488;2022-12-07T10:50:17;10.93;;;3.60;;
22632;SDS011;11483;55.828;37.488;2022-12-07T10:55:41;13.40;;;4.80;;
22632;SDS011;11483;55.828;37.488;2022-12-07T11:09:42;10.87;;;4.40;;
22632;SDS011;11483;55.828;37.488;2022-12-07T11:12:19;15.57;;;4.07;;
22632;SDS011;11483;55.828;37.488;2022-12-07T11:15:11;10.27;;;3.83;;
22632;SDS011;11483;55.828;37.488;2022-12-07T11:31:26;8.37;;;3.87;;
22632;SDS011;11483;55.828;37.488;2022-12-07T11:37:14;10.47;;;4.67;;
22632;SDS011;11483;55.828;37.488;2022-12-07T11:39:48;8.33;;;4.13;;
22632;SDS011;11483;55.828;37.488;2022-12-07T11:42:37;15.63;;;4.73;;
22632;SDS011;11483;55.828;37.488;2022-12-07T11:47:55;10.67;;;4.70;;
22632;SDS011;11483;55.828;37.488;2022-12-07T11:50:42;18.17;;;4.80;;
22632;SDS011;11483;55.828;37.488;2022-12-07T11:53:33;19.33;;;4.40;;
22632;SDS011;11483;55.828;37.488;2022-12-07T12:01:25;9.13;;;3.70;;
22632;SDS011;11483;55.828;37.488;2022-12-07T12:06:35;11.87;;;4.40;;
22632;SDS011;11483;55.828;37.488;2022-12-07T12:09:11;13.60;;;4.90;;
22632;SDS011;11483;55.828;37.488;2022-12-07T12:16:52;9.00;;;3.67;;
22632;SDS011;11483;55.828;37.488;2022-12-07T12:19:40;10.20;;;4.23;;
22632;SDS011;11483;55.828;37.488;2022-12-07T12:24:41;10.00;;;4.10;;
22632;SDS011;11483;55.828;37.488;2022-12-07T12:27:14;15.20;;;4.20;;
22632;SDS011;11483;55.828;37.488;2022-12-07T12:29:52;13.97;;;4.00;;
22632;SDS011;11483;55.828;37.488;2022-12-07T12:32:21;9.50;;;4.07;;
22632;SDS011;11483;55.828;37.488;2022-12-07T12:42:43;12.17;;;5.30;;
22632;SDS011;11483;55.828;37.488;2022-12-07T12:45:23;11.70;;;4.30;;
22632;SDS011;11483;55.828;37.488;2022-12-07T12:47:57;9.77;;;4.07;;
22632;SDS011;11483;55.828;37.488;2022-12-07T12:55:25;12.83;;;5.03;;
22632;SDS011;11483;55.828;37.488;2022-12-07T13:00:47;20.00;;;5.20;;
22632;SDS011;11483;55.828;37.488;2022-12-07T13:03:34;12.63;;;4.90;;
22632;SDS011;11483;55.828;37.488;2022-12-07T13:08:59;16.53;;;4.80;;
22632;SDS011;11483;55.828;37.488;2022-12-07T13:14:40;10.07;;;4.23;;
22632;SDS011;11483;55.828;37.488;2022-12-07T13:17:07;12.30;;;4.97;;
22632;SDS011;11483;55.828;37.488;2022-12-07T13:25:17;9.60;;;4.10;;
22632;SDS011;11483;55.828;37.488;2022-12-07T13:33:37;11.07;;;3.97;;
22632;SDS011;11483;55.828;37.488;2022-12-07T13:36:03;15.13;;;5.17;;
22632;SDS011;11483;55.828;37.488;2022-12-07T13:38:31;15.73;;;5.47;;
22632;SDS011;11483;55.828;37.488;2022-12-07T13:40:59;10.83;;;4.47;;
22632;SDS011;11483;55.828;37.488;2022-12-07T13:43:28;12.27;;;4.73;;
22632;SDS011;11483;55.828;37.488;2022-12-07T13:45:57;14.77;;;4.23;;
22632;SDS011;11483;55.828;37.488;2022-12-07T13:51:21;15.07;;;5.13;;
22632;SDS011;11483;55.828;37.488;2022-12-07T13:54:10;13.20;;;5.23;;
22632;SDS011;11483;55.828;37.488;2022-12-07T13:56:38;15.43;;;4.63;;
22632;SDS011;11483;55.828;37.488;2022-12-07T13:59:17;11.47;;;4.50;;
22632;SDS011;11483;55.828;37.488;2022-12-07T14:01:46;12.60;;;5.10;;
22632;SDS011;11483;55.828;37.488;2022-12-07T14:04:32;14.60;;;5.80;;
22632;SDS011;11483;55.828;37.488;2022-12-07T14:10:33;15.23;;;3.43;;
22632;SDS011;11483;55.828;37.488;2022-12-07T14:15:59;16.83;;;5.20;;
22632;SDS011;11483;55.828;37.488;2022-12-07T14:18:27;15.43;;;6.50;;
22632;SDS011;11483;55.828;37.488;2022-12-07T14:21:05;11.53;;;4.40;;
22632;SDS011;11483;55.828;37.488;2022-12-07T14:23:39;13.00;;;5.60;;
22632;SDS011;11483;55.828;37.488;2022-12-07T14:26:18;14.27;;;6.37;;
22632;SDS011;11483;55.828;37.488;2022-12-07T14:28:46;8.13;;;3.57;;
22632;SDS011;11483;55.828;37.488;2022-12-07T14:31:13;21.40;;;5.50;;
22632;SDS011;11483;55.828;37.488;2022-12-07T14:33:41;12.53;;;3.70;;
22632;SDS011;11483;55.828;37.488;2022-12-07T14:36:11;11.50;;;4.60;;
22632;SDS011;11483;55.828;37.488;2022-12-07T14:38:38;8.70;;;4.43;;
22632;SDS011;11483;55.828;37.488;2022-12-07T14:41:06;13.20;;;4.50;;
22632;SDS011;11483;55.828;37.488;2022-12-07T14:43:58;16.37;;;5.57;;
22632;SDS011;11483;55.828;37.488;2022-12-07T14:46:24;12.40;;;4.73;;
22632;SDS011;11483;55.828;37.488;2022-12-07T14:48:50;14.83;;;5.27;;
22632;SDS011;11483;55.828;37.488;2022-12-07T14:51:15;11.90;;;5.23;;
22632;SDS011;11483;55.828;37.488;2022-12-07T14:53:46;10.10;;;3.97;;
22632;SDS011;11483;55.828;37.488;2022-12-07T14:56:15;11.93;;;5.23;;
22632;SDS011;11483;55.828;37.488;2022-12-07T14:58:41;9.67;;;4.20;;
22632;SDS011;11483;55.828;37.488;2022-12-07T15:01:07;24.47;;;5.00;;
22632;SDS011;11483;55.828;37.488;2022-12-07T15:03:33;19.63;;;4.90;;
22632;SDS011;11483;55.828;37.488;2022-12-07T15:06:06;16.07;;;5.73;;
22632;SDS011;11483;55.828;37.488;2022-12-07T15:08:32;15.10;;;4.73;;
22632;SDS011;11483;55.828;37.488;2022-12-07T15:10:58;11.83;;;4.83;;
22632;SDS011;11483;55.828;37.488;2022-12-07T15:13:24;11.53;;;4.63;;
22632;SDS011;11483;55.828;37.488;2022-12-07T15:16:09;11.37;;;4.43;;
22632;SDS011;11483;55.828;37.488;2022-12-07T15:18:38;13.00;;;4.33;;
22632;SDS011;11483;55.828;37.488;2022-12-07T15:21:04;24.53;;;7.77;;
22632;SDS011;11483;55.828;37.488;2022-12-07T15:23:30;12.63;;;4.20;;
22632;SDS011;11483;55.828;37.488;2022-12-07T15:25:56;12.00;;;5.07;;
22632;SDS011;11483;55.828;37.488;2022-12-07T15:28:22;10.83;;;4.30;;
22632;SDS011;11483;55.828;37.488;2022-12-07T15:30:48;13.17;;;4.43;;
22632;SDS011;11483;55.828;37.488;2022-12-07T15:33:14;10.77;;;3.27;;
22632;SDS011;11483;55.828;37.488;2022-12-07T15:35:40;13.10;;;4.93;;
22632;SDS011;11483;55.828;37.488;2022-12-07T15:38:07;12.03;;;5.00;;
22632;SDS011;11483;55.828;37.488;2022-12-07T15:40:33;11.70;;;5.03;;
22632;SDS011;11483;55.828;37.488;2022-12-07T15:43:00;12.80;;;4.80;;
22632;SDS011;11483;55.828;37.488;2022-12-07T15:45:26;12.63;;;5.00;;
22632;SDS011;11483;55.828;37.488;2022-12-07T15:47:52;11.67;;;4.43;;
22632;SDS011;11483;55.828;37.488;2022-12-07T15:50:20;13.70;;;4.47;;
22632;SDS011;11483;55.828;37.488;2022-12-07T15:52:47;15.30;;;5.30;;
22632;SDS011;11483;55.828;37.488;2022-12-07T15:55:13;11.13;;;4.53;;
22632;SDS011;11483;55.828;37.488;2022-12-07T15:57:38;14.20;;;5.70;;
22632;SDS011;11483;55.828;37.488;2022-12-07T16:00:06;11.60;;;3.80;;
22632;SDS011;11483;55.828;37.488;2022-12-07T16:02:36;7.70;;;3.33;;
22632;SDS011;11483;55.828;37.488;2022-12-07T16:05:02;13.60;;;5.13;;
22632;SDS011;11483;55.828;37.488;2022-12-07T16:07:28;11.37;;;5.60;;
22632;SDS011;11483;55.828;37.488;2022-12-07T16:09:55;13.87;;;5.03;;
22632;SDS011;11483;55.828;37.488;2022-12-07T16:12:21;11.93;;;4.63;;
22632;SDS011;11483;55.828;37.488;2022-12-07T16:14:46;14.03;;;4.37;;
22632;SDS011;11483;55.828;37.488;2022-12-07T16:17:12;10.33;;;4.27;;
22632;SDS011;11483;55.828;37.488;2022-12-07T16:19:38;13.90;;;5.63;;
22632;SDS011;11483;55.828;37.488;2022-12-07T16:22:04;24.80;;;5.87;;
22632;SDS011;11483;55.828;37.488;2022-12-07T16:24:31;13.30;;;4.40;;
22632;SDS011;11483;55.828;37.488;2022-12-07T16:26:57;15.20;;;5.60;;
22632;SDS011;11483;55.828;37.488;2022-12-07T16:29:23;9.20;;;3.77;;
22632;SDS011;11483;55.828;37.488;2022-12-07T16:31:52;15.23;;;5.00;;
22632;SDS011;11483;55.828;37.488;2022-12-07T16:34:18;12.17;;;4.93;;
22632;SDS011;11483;55.828;37.488;2022-12-07T16:36:44;11.40;;;4.73;;
22632;SDS011;11483;55.828;37.488;2022-12-07T16:39:10;14.37;;;5.00;;
22632;SDS011;11483;55.828;37.488;2022-12-07T16:41:36;15.87;;;5.73;;
22632;SDS011;11483;55.828;37.488;2022-12-07T16:44:03;18.70;;;4.53;;
22632;SDS011;11483;55.828;37.488;2022-12-07T16:46:34;11.37;;;4.57;;